Hauptseite
METAR-TAF:

METAR-TAF

Flughäfen :

Flughafen Châlons Vatry

Châlons-en-Champagne, Frankreich

Breite: 48-46-34N, Länge: 004-11-04E, Höhe: 179 m

Beobachtung

Neuester Wetterbericht von vor 40 Minuten, um 11:00 UTC
Wind 8 kt aus Nord/Nordost, variierte zwischen Nord/Nordwest und Ost/Nordost
Temperatur 28°C
Luftfeuchtigkeit 32%
Luftdruck 1017 hPa
Sichtweite 10 km oder mehr
keine Wolken unter 1500 m und keine Kumulonimbus oder Gewitterwolken

METAR: LFOK 191100Z AUTO 02008KT 340V060 CAVOK 28/10 Q1017 NOSIG

Zeit: 13:40 (11:40 UTC)

Prognose

Neuester Wetterbericht von vor 6 Stunden und 40 Minuten, um 05:00 UTC
Gültige Prognose vom 19 um 06 UTC bis 20 um 06 UTC
Wind 8 kt aus Nord
Sichtweite 10 km oder mehr
keine Wolken unter 1500 m und keine Kumulonimbus oder Gewitterwolken

TAF: LFOK 190500Z 1906/2006 01008KT CAVOK

Wetterbeobachtungen und Prognosen von mehr als 4000 Flughäfen (METAR und TAF Bericht).

Die verfügbaren Stationen werden durch gelbe und rote Markierungen auf der Karte dargestellt.

Führen Sie die Maus auf sie, um den Namen der Station zu sehen.

Darauf klicken, um die Beobachtung von Wetterbeobachtungen und Prognosen zu sehen.

Um die Karte zu ändern : klicken Sie auf den grünen Tasten mit einem schwarzen Kreuz Zum Vergrößern, auf den grünen Button mit einem Gedankenstrich zu verkleinern, oder auf die grünen Pfeile für benachbarte Karten.


METAR-TAF: